Home > Products > Valid Products > TAF

000
FTUS43 KLSX 290300 AAA
TAFSTL
TAF AMD
KSTL 290341Z 2904/3006 12008KT P6SM SCT120 BKN250
     FM291500 18008KT P6SM SCT035 BKN120
     FM292100 18009KT P6SM VCTS BKN045CB
     FM300300 19008KT P6SM SCT050 BKN120=



000
FTUS43 KLSX 282300
TAFSUS
TAF
KSUS 282338Z 2900/2924 VRB04KT P6SM VCTS SCT040CB BKN080
     FM290200 VRB03KT P6SM SCT120 BKN250
      TEMPO 2908/2912 4SM BR
     FM291500 18007KT P6SM SCT035 BKN120
     FM292100 18008KT P6SM VCTS BKN045CB=



000
FTUS43 KLSX 282300
TAFCOU
TAF
KCOU 282338Z 2900/2924 16008KT P6SM SCT060
     FM290100 14006KT P6SM SCT250
     FM291500 19010KT P6SM SCT035 BKN120
     FM292100 20010KT P6SM VCTS SCT045CB BKN120=



000
FTUS43 KLSX 282300
TAFUIN
TAF
KUIN 282338Z 2900/2924 02006KT P6SM VCTS BKN040CB OVC080
      TEMPO 2900/2901 4SM -TSRA
     FM290200 12006KT P6SM SCT120 BKN250
     FM290900 16007KT P6SM SCT080 BKN150
     FM291500 19010KT P6SM SCT035 BKN120
     FM292100 19010KT P6SM VCTS SCT045CB BKN120=



000
FTUS43 KLSX 282300
TAFSTL
TAF
KSTL 282338Z 2900/3006 16010G20KT P6SM VCTS SCT040CB BKN080
      TEMPO 2900/2901 6SM -TSRA BKN040CB
     FM290200 13006KT P6SM SCT120 BKN250
     FM291500 18008KT P6SM SCT035 BKN120
     FM292100 18009KT P6SM VCTS BKN045CB
     FM300300 19008KT P6SM SCT050 BKN120=



000
FTUS43 KLSX 282200 AAC
TAFSTL
TAF AMD
KSTL 282229Z 2822/2924 18011KT P6SM VCTS BKN040CB OVC080
      TEMPO 2822/2823 VRB15G30KT 3SM TSRA OVC035CB
     FM290200 12006KT P6SM SCT200
     FM291300 17007KT P6SM SCT060
     FM292000 18009KT P6SM VCTS BKN040CB=



000
FTUS43 KLSX 282200 AAC
TAFUIN
TAF AMD
KUIN 282212Z 2822/2918 12007KT P6SM VCTS BKN040CB OVC080
      TEMPO 2823/2824 VRB15G30KT 3SM TSRA OVC035CB
     FM290200 12006KT P6SM SCT150
     FM290900 17009KT P6SM SCT080 BKN150=



000
FTUS43 KLSX 282200 AAB
TAFSTL
TAF AMD
KSTL 282209Z 2822/2924 18010KT P6SM VCTS BKN040CB OVC080
      TEMPO 2823/2824 VRB15G30KT 3SM TSRA OVC035CB
     FM290200 12006KT P6SM SCT200
     FM291300 17007KT P6SM SCT060
     FM292000 18009KT P6SM VCTS BKN040CB=



000
FTUS43 KLSX 282100 AAB
TAFSUS
TAF AMD
KSUS 282153Z 2822/2918 14010KT P6SM VCTS SCT040CB BKN080
      TEMPO 2822/2823 VRB15G30KT 3SM TSRA OVC035CB
     FM290200 10004KT P6SM SCT200
     FM291500 15006KT P6SM SCT060=



000
FTUS43 KLSX 282000 AAB
TAFUIN
TAF AMD
KUIN 282059Z 2821/2918 14010KT P6SM FEW030 SCT080
     FM282100 13007KT P6SM VCTS SCT040CB BKN120
     FM290200 12006KT P6SM SCT150
     FM290900 17009KT P6SM SCT080 BKN150=



000
FTUS43 KLSX 281900 AAA
TAFSUS
TAF AMD
KSUS 281958Z 2820/2918 VRB04KT P6SM FEW040
     FM282100 11007KT P6SM VCTS SCT050CB BKN120
     FM290200 10004KT P6SM SCT200
     FM291500 15006KT P6SM SCT060=



000
FTUS43 KLSX 281900 AAA
TAFSTL
TAF AMD
KSTL 281958Z 2820/2924 13007KT P6SM FEW040
     FM282100 13008KT P6SM VCTS SCT050CB BKN120
     FM290200 12006KT P6SM SCT200
     FM291300 17007KT P6SM SCT060
     FM292000 18009KT P6SM VCTS BKN040CB=



000
FTUS43 KLSX 281900 AAA
TAFUIN
TAF AMD
KUIN 281957Z 2820/2918 14010KT P6SM FEW030 SCT080
     FM282200 13007KT P6SM VCTS SCT040CB BKN120
     FM290200 12006KT P6SM SCT150
     FM290900 17009KT P6SM SCT080 BKN150=



000
FTUS43 KLSX 281700
TAFSTL
TAF
KSTL 281725Z 2818/2924 16007KT P6SM FEW040
     FM282000 13008KT P6SM VCTS SCT050CB BKN120
     FM290200 12006KT P6SM SCT200
     FM291300 17007KT P6SM SCT060
     FM292000 18009KT P6SM VCTS BKN040CB=



000
FTUS43 KLSX 281700
TAFUIN
TAF
KUIN 281725Z 2818/2918 14010KT P6SM FEW030 SCT080
     FM282000 13007KT P6SM VCTS SCT040CB BKN120
     FM290200 12006KT P6SM SCT150
     FM290900 17009KT P6SM SCT080 BKN150=



000
FTUS43 KLSX 281700
TAFSUS
TAF
KSUS 281725Z 2818/2918 13005KT P6SM FEW040
     FM282000 11007KT P6SM VCTS SCT050CB BKN120
     FM290200 10004KT P6SM SCT200
     FM291500 15006KT P6SM SCT060=



000
FTUS43 KLSX 281700
TAFCOU
TAF
KCOU 281725Z 2818/2918 17008KT P6SM SCT050 BKN120
     FM290100 11008KT P6SM SCT250
     FM291500 15007KT P6SM VCTS SCT040CB=



000
FTUS43 KLSX 281500 AAD
TAFUIN
TAF AMD
KUIN 281515Z 2815/2912 12010KT P6SM SCT020 BKN080
     FM281900 14008KT P6SM VCTS SCT040CB BKN120
     FM290100 12006KT P6SM SCT120 SCT250=



000
FTUS43 KLSX 281500 AAC
TAFUIN
TAF AMD
KUIN 281500Z 2815/2912 12008KT P6SM SCT004 BKN080
      TEMPO 2815/2816 BKN009
     FM281900 14008KT P6SM VCTS SCT040CB BKN120
     FM290100 12006KT P6SM SCT120 SCT250=



000
FTUS43 KLSX 281400 AAB
TAFUIN
TAF AMD
KUIN 281401Z 2814/2912 12008KT P6SM SCT004 BKN080
      TEMPO 2814/2816 5SM BR BKN004
     FM281900 14008KT P6SM VCTS SCT040CB BKN120
     FM290100 12006KT P6SM SCT120 SCT250=



000
FTUS43 KLSX 281300 AAA
TAFUIN
TAF AMD
KUIN 281315Z 2813/2912 10005KT P6SM SCT004 BKN080
      TEMPO 2813/2814 4SM BR BKN004
     FM281900 14008KT P6SM VCTS SCT040CB BKN120
     FM290100 12006KT P6SM SCT120 SCT250=



000
FTUS43 KLSX 281300 AAA
TAFSUS
TAF AMD
KSUS 281314Z 2813/2912 00000KT 6SM BR SKC
     FM281400 12006KT P6SM SCT040
     FM282000 13007KT P6SM VCTS SCT045CB BKN120
     FM290100 VRB04KT P6SM SCT120 BKN250=



000
FTUS43 KLSX 281100
TAFSUS
TAF
KSUS 281120Z 2812/2912 12006KT P6SM SCT040 BKN250
      TEMPO 2812/2814 4SM BR
     FM282000 13007KT P6SM VCTS SCT045CB BKN120
     FM290100 VRB04KT P6SM SCT120 BKN250=



000
FTUS43 KLSX 281100
TAFSTL
TAF
KSTL 281120Z 2812/2918 12007KT P6SM SCT040 BKN250
     FM282000 13008KT P6SM VCTS SCT045CB BKN120
     FM290100 12006KT P6SM SCT120 BKN250=



000
FTUS43 KLSX 281100
TAFCOU
TAF
KCOU 281120Z 2812/2912 15008KT P6SM SCT040 BKN250
     FM290100 11008KT P6SM SCT250=



000
FTUS43 KLSX 281100
TAFUIN
TAF
KUIN 281120Z 2812/2912 10005KT P6SM SCT002 BKN080
      TEMPO 2812/2813 5SM BR BKN002
     FM281900 14008KT P6SM VCTS SCT040CB BKN120
     FM290100 12006KT P6SM SCT120 SCT250=



000
FTUS43 KLSX 280900 AAA
TAFSTL
TAF AMD
KSTL 280903Z 2809/2912 VRB04KT P6SM SCT150
      TEMPO 2809/2812 5SM BR
     FM281600 12007KT P6SM SCT040 BKN250
     FM282000 13008KT P6SM VCTS SCT045CB BKN120
     FM290100 12006KT P6SM SCT120 BKN250=



000
FTUS43 KLSX 280700 AAA
TAFSUS
TAF AMD
KSUS 280753Z 2808/2906 00000KT 3SM BR SKC
      TEMPO 2808/2812 1SM BR
     FM281500 12006KT P6SM SCT040 BKN250
     FM282000 13007KT P6SM VCTS SCT045CB BKN120
     FM290100 VRB04KT P6SM SCT120 BKN250=



000
FTUS43 KLSX 280500
TAFCOU
TAF
KCOU 280520Z 2806/2906 12005KT P6SM BKN120
      TEMPO 2808/2812 4SM BR
     FM281500 15008KT P6SM SCT040 BKN250=



000
FTUS43 KLSX 280500
TAFSTL
TAF
KSTL 280520Z 2806/2912 VRB04KT P6SM BKN120
      TEMPO 2808/2812 5SM BR
     FM281600 12007KT P6SM SCT040 BKN250
     FM282000 13008KT P6SM VCTS SCT045CB BKN120
     FM290100 12006KT P6SM SCT120 BKN250=



000
FTUS43 KLSX 280500
TAFSUS
TAF
KSUS 280520Z 2806/2906 VRB03KT 5SM BR BKN120
      TEMPO 2808/2812 2SM BR
     FM281600 12006KT P6SM SCT040 BKN250
     FM282000 13007KT P6SM VCTS SCT045CB BKN120
     FM290100 VRB04KT P6SM SCT120 BKN250=



000
FTUS43 KLSX 280500
TAFUIN
TAF
KUIN 280520Z 2806/2906 VRB04KT 6SM BR SCT020 BKN080
      TEMPO 2808/2812 4SM BR
     FM281200 10005KT P6SM VCTS SCT025 BKN080CB
     FM281500 14008KT P6SM SCT040 BKN120=



000
FTUS43 KLSX 280300 AAA
TAFSTL
TAF AMD
KSTL 280308Z 2803/2906 10008KT P6SM -RA BKN100
     FM280400 05005KT P6SM SCT100 BKN250
     FM280800 10005KT P6SM SCT100 BKN250
      TEMPO 2808/2812 4SM BR
     FM281700 14008KT P6SM SCT040 BKN250=



000
FTUS43 KLSX 280100 AAA
TAFSUS
TAF AMD
KSUS 280106Z 2801/2824 VRB04KT P6SM BKN060 OVC120
      TEMPO 2801/2802 5SM -TSRA OVC035CB
     FM280200 VRB03KT P6SM SCT100 BKN250
     FM280800 VRB03KT P6SM SCT100 BKN250
      TEMPO 2808/2812 3SM BR
     FM281700 14007KT P6SM SCT040 BKN250=



000
FTUS43 KLSX 272300
TAFCOU
TAF
KCOU 272339Z 2800/2824 05005KT P6SM SCT030 BKN080
     FM280200 07005KT P6SM BKN250
     FM280800 11005KT P6SM SCT100 BKN250
      TEMPO 2808/2812 4SM BR
     FM281700 17008KT P6SM SCT040 BKN250=



000
FTUS43 KLSX 272300
TAFSTL
TAF
KSTL 272339Z 2800/2906 08006KT P6SM VCTS SCT040CB BKN080
     FM280200 04005KT P6SM SCT100 BKN250
     FM280800 10005KT P6SM SCT100 BKN250
      TEMPO 2808/2812 4SM BR
     FM281700 14008KT P6SM SCT040 BKN250=



000
FTUS43 KLSX 272300
TAFSUS
TAF
KSUS 272339Z 2800/2824 27006KT P6SM VCTS BKN040CB BKN080
      TEMPO 2800/2801 5SM -TSRA OVC030CB
     FM280200 VRB03KT P6SM SCT100 BKN250
     FM280800 VRB03KT P6SM SCT100 BKN250
      TEMPO 2808/2812 3SM BR
     FM281700 14007KT P6SM SCT040 BKN250=



000
FTUS43 KLSX 272300
TAFUIN
TAF
KUIN 272339Z 2800/2824 06005KT P6SM BKN120
     FM281200 10005KT P6SM VCTS BKN080CB
     FM281500 14007KT P6SM SCT040 BKN120=



000
FTUS43 KLSX 272200 AAA
TAFCOU
TAF AMD
KCOU 272254Z 2723/2818 10012KT P6SM SCT030 BKN080
     FM280100 07005KT P6SM BKN250
     FM280800 11005KT P6SM SCT100
      TEMPO 2808/2812 4SM BR
     FM281700 17006KT P6SM SCT040=



000
FTUS43 KLSX 272200 AAA
TAFSUS
TAF AMD
KSUS 272215Z 2722/2818 10010KT P6SM BKN040 OVC080
      TEMPO 2722/2724 VRB15G30KT 3SM TSRA OVC030CB
     FM280100 00000KT P6SM BKN250
     FM280800 00000KT P6SM SCT100
      TEMPO 2808/2812 4SM BR
     FM281700 15005KT P6SM SCT040=



000
FTUS43 KLSX 272200 AAB
TAFSTL
TAF AMD
KSTL 272200Z 2722/2824 15010KT 6SM -TSRA BKN035CB OVC100
      TEMPO 2722/2723 VRB15G35KT 2SM TSRA OVC020CB
     FM280100 04005KT P6SM BKN250
     FM280800 11005KT P6SM SCT100
      TEMPO 2808/2812 4SM BR
     FM281700 15006KT P6SM SCT040=



000
FTUS43 KLSX 272100 AAA
TAFSTL
TAF AMD
KSTL 272101Z 2721/2824 VRB04KT P6SM VCTS SCT040CB BKN250
      TEMPO 2721/2722 VRB15G30KT 5SM TSRA OVC035CB
     FM280100 04005KT P6SM BKN250
     FM280800 11005KT P6SM SCT100
      TEMPO 2808/2812 4SM BR
     FM281700 15006KT P6SM SCT040=



000
FTUS43 KLSX 271800 AAA
TAFUIN
TAF AMD
KUIN 271833Z 2719/2818 02005KT P6SM SCT040 SCT100
     FM280000 05005KT P6SM BKN250
     FM281200 10005KT P6SM VCTS BKN080CB=



000
FTUS43 KLSX 271700
TAFSUS
TAF
KSUS 271740Z 2718/2818 VRB04KT P6SM BKN250
     FM271900 VRB04KT P6SM VCTS SCT040CB BKN250
     FM280100 00000KT P6SM BKN250
     FM280800 00000KT P6SM SCT100
      TEMPO 2808/2812 4SM BR
     FM281700 15005KT P6SM SCT040=



000
FTUS43 KLSX 271700
TAFUIN
TAF
KUIN 271740Z 2718/2818 03008KT P6SM VCTS BKN020CB BKN030
     FM271830 02005KT P6SM SCT040 SCT100
     FM280000 05005KT P6SM BKN250
     FM281200 10005KT P6SM VCTS BKN080CB=



000
FTUS43 KLSX 271700
TAFSTL
TAF
KSTL 271740Z 2718/2824 VRB04KT P6SM BKN250
     FM271900 04005KT P6SM VCTS SCT040CB BKN250
     FM280100 04005KT P6SM BKN250
     FM280800 11005KT P6SM SCT100
      TEMPO 2808/2812 4SM BR
     FM281700 15006KT P6SM SCT040=



000
FTUS43 KLSX 271700
TAFCOU
TAF
KCOU 271740Z 2718/2818 01008KT P6SM SCT020
      TEMPO 2718/2719 BKN020
     FM271900 05005KT P6SM SCT040 BKN250
     FM280000 07005KT P6SM BKN250
     FM280800 11005KT P6SM SCT100
      TEMPO 2808/2812 4SM BR
     FM281700 17006KT P6SM SCT040=



000
FTUS43 KLSX 271600 AAB
TAFCOU
TAF AMD
KCOU 271644Z 2717/2812 01008KT P6SM SCT020
      TEMPO 2717/2719 BKN020
     FM271900 05005KT P6SM SCT040 BKN250
     FM280000 07005KT P6SM BKN250
     FM280800 11005KT P6SM SCT040 BKN120
      TEMPO 2808/2812 4SM BR=



000
FTUS43 KLSX 271600 AAB
TAFUIN
TAF AMD
KUIN 271644Z 2717/2812 05006KT P6SM SHRA VCTS BKN020CB BKN030
     FM271800 02005KT P6SM SCT040 SCT100
     FM280000 05005KT P6SM BKN250
     FM280500 09005KT P6SM SCT120 BKN250=



000
FTUS43 KLSX 271500 AAA
TAFSUS
TAF AMD
KSUS 271510Z 2715/2812 VRB03KT P6SM SCT250
     FM271900 04004KT P6SM VCTS SCT040CB BKN250
     FM280100 08005KT P6SM BKN250
     FM280800 11005KT P6SM BKN040
      TEMPO 2808/2812 4SM BR=



000
FTUS43 KLSX 271500 AAA
TAFUIN
TAF AMD
KUIN 271509Z 2715/2812 05006KT P6SM VCTS SCT040CB OVC250
     FM272000 02005KT P6SM SCT050 SCT100
     FM280000 05005KT P6SM BKN250
     FM280500 09005KT P6SM SCT120 BKN250=



000
FTUS43 KLSX 271500 AAA
TAFCOU
TAF AMD
KCOU 271503Z 2715/2812 32006KT P6SM BKN250
     FM271700 05005KT P6SM SCT040 BKN250
     FM280000 07005KT P6SM BKN250
     FM280800 11005KT P6SM SCT040 BKN120
      TEMPO 2808/2812 4SM BR=



000
FTUS43 KLSX 271500 AAA
TAFSTL
TAF AMD
KSTL 271501Z 2715/2818 VRB04KT P6SM SCT250
     FM271900 04007KT P6SM VCTS SCT040CB BKN250
     FM280100 08005KT P6SM BKN250
     FM280800 11005KT P6SM BKN040
      TEMPO 2808/2812 4SM BR=



000
FTUS43 KLSX 271100 CCA
TAFUIN
TAF COR
KUIN 271134Z 2712/2812 05005KT P6SM SCT025 BKN250
      TEMPO 2712/2716 BKN025
     FM271600 05006KT P6SM VCTS SCT035CB BKN250
     FM280000 05005KT P6SM BKN250
     FM280500 09005KT P6SM SCT120 BKN250=



000
FTUS43 KLSX 271100
TAFUIN
TAF
KUIN 271133Z 2712/2812 VRB03KT P6SM SCT250
     FM271600 05006KT P6SM VCTS SCT035CB BKN250
     FM280000 05005KT P6SM BKN250
     FM280500 09005KT P6SM SCT120 BKN250=



000
FTUS43 KLSX 271100
TAFSUS
TAF
KSUS 271133Z 2712/2812 VRB03KT P6SM SCT250
     FM271800 04007KT P6SM SCT040 BKN250
     FM280000 08005KT P6SM BKN250
     FM280800 11005KT P6SM BKN040
      TEMPO 2808/2812 4SM BR=



000
FTUS43 KLSX 271100
TAFCOU
TAF
KCOU 271133Z 2712/2812 VRB04KT 3SM BR SCT250
      TEMPO 2712/2713 1/2SM FG BKN004
     FM271500 07006KT P6SM SCT035 BKN250
     FM280000 07005KT P6SM BKN250
     FM280800 11005KT P6SM SCT040 BKN120
      TEMPO 2808/2812 4SM BR=



000
FTUS43 KLSX 271100
TAFSTL
TAF
KSTL 271133Z 2712/2818 VRB04KT P6SM SCT250
     FM271800 04007KT P6SM SCT040 BKN250
     FM280000 08005KT P6SM BKN250
     FM280800 11005KT P6SM BKN040
      TEMPO 2808/2812 4SM BR=



000
FTUS43 KLSX 271000 AAB
TAFCOU
TAF AMD
KCOU 271039Z 2711/2806 00000KT 1/4SM FG VV004
     FM271100 VRB03KT 3SM BR SCT250
      TEMPO 2711/2712 1SM BR SCT004
     FM271500 06006KT P6SM SCT035 BKN250
     FM280000 07005KT P6SM BKN250=



000
FTUS43 KLSX 271000 AAA
TAFCOU
TAF AMD
KCOU 271002Z 2710/2806 VRB04KT 4SM BR SCT250
      TEMPO 2710/2712 2SM BR
     FM271500 06006KT P6SM SCT035 BKN250
     FM280000 07005KT P6SM BKN250=



000
FTUS43 KLSX 270800 AAB
TAFSTL
TAF AMD
KSTL 270857Z 2709/2812 VRB04KT P6SM SCT250
     FM271800 01007KT P6SM SCT040 BKN250
     FM280000 05005KT P6SM SCT050 BKN120=



000
FTUS43 KLSX 270700 AAA
TAFUIN
TAF AMD
KUIN 270726Z 2707/2806 VRB03KT P6SM SCT025 BKN250
      TEMPO 2707/2708 BKN025
     FM271500 05006KT P6SM SCT035 BKN250
     FM280000 06005KT P6SM BKN250=



000
FTUS43 KLSX 270700 AAA
TAFSUS
TAF AMD
KSUS 270724Z 2707/2806 VRB03KT P6SM BKN250
      TEMPO 2709/2713 4SM BR
     FM271800 01006KT P6SM SCT040 BKN250
     FM280000 VRB04KT P6SM SCT050 BKN120=



000
FTUS43 KLSX 270700 AAA
TAFSTL
TAF AMD
KSTL 270724Z 2707/2812 VRB04KT P6SM BKN250
     FM271800 01007KT P6SM SCT040 BKN250
     FM280000 05005KT P6SM SCT050 BKN120=



000
FTUS43 KLSX 270500
TAFCOU
TAF
KCOU 270520Z 2706/2806 VRB04KT P6SM SCT250
     FM271500 06006KT P6SM SCT035 BKN250
     FM280000 07005KT P6SM BKN250=



000
FTUS43 KLSX 270500
TAFSTL
TAF
KSTL 270520Z 2706/2812 06012G22KT P6SM VCTS BKN040CB OVC080
      TEMPO 2706/2707 4SM -TSRA BKN035CB
     FM270800 VRB04KT P6SM BKN250
     FM271800 01007KT P6SM SCT040 BKN250
     FM280000 05005KT P6SM SCT050 BKN120=



000
FTUS43 KLSX 270500
TAFUIN
TAF
KUIN 270520Z 2706/2806 04005KT P6SM SCT250
     FM271500 05006KT P6SM SCT035 BKN250
     FM280000 06005KT P6SM BKN250=



000
FTUS43 KLSX 270500
TAFSUS
TAF
KSUS 270520Z 2706/2806 05010G20KT P6SM VCTS SCT060CB BKN120
      TEMPO 2706/2707 4SM -TSRA BKN035CB
     FM270800 VRB03KT P6SM BKN250
      TEMPO 2709/2713 4SM BR
     FM271800 01006KT P6SM SCT040 BKN250
     FM280000 VRB04KT P6SM SCT050 BKN120=



000
FTUS43 KLSX 270400 AAA
TAFSUS
TAF AMD
KSUS 270426Z 2704/2724 VRB04KT P6SM BKN250
     FM270600 04008G18KT P6SM SCT120 BKN250
     FM270700 VRB03KT P6SM SCT250
      TEMPO 2709/2713 4SM BR
     FM271800 03005KT P6SM SCT040 BKN250=



000
FTUS43 KLSX 270400 AAB
TAFSTL
TAF AMD
KSTL 270402Z 2704/2806 VRB04KT P6SM BKN250
     FM270500 04010G25KT P6SM SCT100 BKN250
     FM270600 VRB04KT P6SM BKN250
     FM271800 02006KT P6SM SCT040 BKN250
     FM280000 06005KT P6SM SCT050 BKN120=



000
FTUS43 KLSX 270300 AAA
TAFSTL
TAF AMD
KSTL 270307Z 2703/2806 VRB04KT P6SM BKN250
     FM271800 02006KT P6SM SCT040 BKN250
     FM280000 06005KT P6SM SCT050 BKN120=



000
FTUS43 KLSX 262300
TAFSTL
TAF
KSTL 262338Z 2700/2806 16005KT P6SM SCT050 BKN120
     FM270200 VRB04KT P6SM SCT250
     FM271800 03006KT P6SM SCT040 BKN250
     FM280000 07005KT P6SM SCT050 BKN120=



000
FTUS43 KLSX 262300
TAFCOU
TAF
KCOU 262338Z 2700/2724 VRB04KT P6SM VCTS SCT050CB BKN250
     FM270200 VRB04KT P6SM SCT250
     FM271500 06006KT P6SM SCT035 BKN250=



000
FTUS43 KLSX 262300
TAFUIN
TAF
KUIN 262338Z 2700/2724 02007KT P6SM SCT035
     FM270200 VRB04KT P6SM SCT250
     FM270900 VRB04KT P6SM SCT050 BKN120
     FM271500 07006KT P6SM SCT030 BKN250=



000
FTUS43 KLSX 262300
TAFSUS
TAF
KSUS 262338Z 2700/2724 VRB04KT P6SM SCT050 BKN120
     FM270200 VRB03KT P6SM SCT250
      TEMPO 2709/2713 4SM BR
     FM271800 03005KT P6SM SCT040 BKN250=



000
FTUS43 KLSX 262200 AAD
TAFSTL
TAF AMD
KSTL 262234Z 2623/2724 12010KT P6SM VCTS SCT050CB BKN120
      TEMPO 2623/2624 VRB15G30KT 3SM TSRA BKN040CB
     FM270100 16006KT P6SM SKC
     FM270900 VRB05KT P6SM SCT250=



000
FTUS43 KLSX 262100 AAC
TAFSTL
TAF AMD
KSTL 262138Z 2622/2724 VRB05KT P6SM VCTS SCT050CB BKN120
      TEMPO 2622/2623 VRB15G30KT 5SM -TSRA BKN040CB
     FM270100 16006KT P6SM SKC
     FM270900 VRB05KT P6SM SCT250=



000
FTUS43 KLSX 262000 AAB
TAFSTL
TAF AMD
KSTL 262051Z 2621/2724 VRB05KT P6SM VCTS SCT050CB SCT250
     FM270100 16006KT P6SM SKC
     FM270900 VRB05KT P6SM SCT250=



000
FTUS43 KLSX 262000 AAA
TAFSUS
TAF AMD
KSUS 262029Z 2620/2718 VRB05KT P6SM VCTS SCT050CB SCT250
     FM270100 00000KT P6SM SKC
     FM271500 VRB05KT P6SM SCT250=



000
FTUS43 KLSX 262000 AAA
TAFSTL
TAF AMD
KSTL 262029Z 2620/2724 VRB05KT P6SM VCTS SCT050CB SCT250
     FM270100 16006KT P6SM SKC
     FM270900 VRB05KT P6SM SCT250=



000
FTUS43 KLSX 261700
TAFSTL
TAF
KSTL 261720Z 2618/2724 VRB05KT P6SM SCT050 SCT250
     FM270100 16006KT P6SM SKC
     FM270900 VRB05KT P6SM SCT250=



000
FTUS43 KLSX 261700
TAFUIN
TAF
KUIN 261720Z 2618/2718 03008KT P6SM SCT050 BKN250
     FM270100 07005KT P6SM SCT250
     FM271500 VRB05KT P6SM SCT030 SCT250=



000
FTUS43 KLSX 261700
TAFCOU
TAF
KCOU 261720Z 2618/2718 02005KT P6SM SCT050 SCT250
     FM270200 10005KT P6SM SCT250=



000
FTUS43 KLSX 261700
TAFSUS
TAF
KSUS 261720Z 2618/2718 VRB05KT P6SM SCT050 SCT250
     FM270100 00000KT P6SM SKC
     FM271500 VRB05KT P6SM SCT250=



000
FTUS43 KLSX 261600 AAB
TAFCOU
TAF AMD
KCOU 261645Z 2617/2712 02005KT P6SM SCT250
     FM262100 33005KT P6SM SCT050 SCT250
     FM270000 VRB05KT P6SM SCT250=



000
FTUS43 KLSX 261600 AAB
TAFUIN
TAF AMD
KUIN 261644Z 2617/2712 22005KT P6SM BKN250
      TEMPO 2617/2618 34008KT P6SM BKN015
     FM261800 VRB05KT P6SM SCT050 SCT250
     FM270100 09005KT P6SM SCT250=



000
FTUS43 KLSX 261500 AAA
TAFCOU
TAF AMD
KCOU 261523Z 2615/2712 25005KT P6SM SCT250
      TEMPO 2616/2617 34008KT P6SM BKN009
     FM262100 33005KT P6SM SCT050 SCT250
     FM270000 VRB05KT P6SM SCT250=



000
FTUS43 KLSX 261500 AAA
TAFUIN
TAF AMD
KUIN 261522Z 2615/2712 22005KT P6SM BKN250
      TEMPO 2615/2616 34008KT P6SM BKN009
     FM261800 VRB05KT P6SM SCT050 SCT250
     FM270100 09005KT P6SM SCT250=



000
FTUS43 KLSX 261400 AAA
TAFSTL
TAF AMD
KSTL 261451Z 2615/2718 26005KT P6SM FEW050
     FM262200 VRB05KT P6SM SCT050
     FM270100 16005KT P6SM SKC=



000
FTUS43 KLSX 261100
TAFSUS
TAF
KSUS 261120Z 2612/2712 VRB05KT P6SM SKC
     FM261500 27005KT P6SM FEW050
     FM262200 VRB05KT P6SM SCT050
     FM270100 00000KT P6SM SKC=



000
FTUS43 KLSX 261100
TAFUIN
TAF
KUIN 261120Z 2612/2712 18005KT P6SM SCT250
     FM261500 22005KT P6SM BKN250
     FM261800 VRB05KT P6SM SCT050 SCT250
     FM270100 09005KT P6SM SCT250=



000
FTUS43 KLSX 261100
TAFSTL
TAF
KSTL 261120Z 2612/2718 18005KT P6SM SKC
     FM261500 27005KT P6SM FEW050
     FM262200 VRB05KT P6SM SCT050
     FM270100 16005KT P6SM SKC=



000
FTUS43 KLSX 261100
TAFCOU
TAF
KCOU 261120Z 2612/2712 18005KT P6SM SKC
     FM261500 25005KT P6SM SCT250
     FM262100 33005KT P6SM SCT050 SCT250
     FM270000 VRB05KT P6SM SCT250=



000
FTUS43 KLSX 260800 AAA
TAFSTL
TAF AMD
KSTL 260852Z 2609/2712 VRB05KT P6SM SKC
     FM261500 27005KT P6SM FEW040
     FM262200 VRB05KT P6SM VCTS SCT050CB
     FM270100 15005KT P6SM SKC=



000
FTUS43 KLSX 260500
TAFSTL
TAF
KSTL 260520Z 2606/2712 14007KT P6SM FEW250
     FM261500 27005KT P6SM FEW040
     FM262000 32006KT P6SM FEW050
     FM270100 12005KT P6SM SKC=



000
FTUS43 KLSX 260500
TAFUIN
TAF
KUIN 260520Z 2606/2706 17003KT P6SM SKC
      TEMPO 2610/2613 5SM BR
     FM261500 30005KT P6SM FEW040
     FM262000 05005KT P6SM VCTS SCT050CB
     FM270100 09004KT P6SM FEW050 SCT250=



000
FTUS43 KLSX 260500
TAFSUS
TAF
KSUS 260520Z 2606/2706 14004KT P6SM FEW250
     FM261000 00000KT 4SM BR SKC
     FM261400 VRB04KT P6SM FEW050
     FM270100 00000KT P6SM SKC=



000
FTUS43 KLSX 260500
TAFCOU
TAF
KCOU 260520Z 2606/2706 14004KT P6SM SKC
      TEMPO 2610/2613 5SM BR
     FM261500 23005KT P6SM FEW050
     FM262100 09004KT P6SM FEW050=



    US Dept of Commerce
    National Oceanic and Atmospheric Administration
    National Weather Service
    1325 East West Highway
    Silver Spring, MD 20910
    Page Author: NWS Internet Services Team
Disclaimer
Information Quality
Credits
Glossary
Privacy Policy
Freedom of Information Act (FOIA)
About Us
Career Opportunities